createdAt,value
2022-09-28T00:01:19.892Z,99044.44
2022-09-28T00:04:22.498Z,99045.97
2022-09-28T00:07:24.496Z,99044.38
2022-09-28T00:10:26.789Z,99059.25
2022-09-28T00:13:29.491Z,99045.44
2022-09-28T00:16:33.278Z,99032.00
2022-09-28T00:19:35.324Z,99028.75
2022-09-28T00:22:37.698Z,99029.12
2022-09-28T00:25:39.728Z,99027.53
2022-09-28T00:28:41.979Z,99025.16
2022-09-28T00:31:44.273Z,99026.31
2022-09-28T00:34:46.606Z,99035.31
2022-09-28T00:37:49.075Z,99029.38
2022-09-28T00:40:52.043Z,99026.63
2022-09-28T00:44:14.160Z,99041.56
2022-09-28T00:47:37.357Z,99037.66
2022-09-28T00:50:39.767Z,99040.81
2022-09-28T00:53:43.903Z,99040.03
2022-09-28T00:56:47.525Z,99038.06
2022-09-28T00:59:51.180Z,99042.00
2022-09-28T01:02:53.531Z,99039.25
2022-09-28T01:05:57.771Z,99043.16
2022-09-28T01:09:03.003Z,99043.97
2022-09-28T01:12:05.546Z,99042.44
2022-09-28T01:15:07.770Z,99042.44
2022-09-28T01:18:17.009Z,99042.84
2022-09-28T01:21:20.463Z,99044.88
2022-09-28T01:24:41.408Z,99050.81
2022-09-28T01:27:59.870Z,99042.13
2022-09-28T01:31:09.552Z,99050.38
2022-09-28T01:34:16.196Z,99050.38
2022-09-28T01:37:19.991Z,99056.69
2022-09-28T01:40:24.284Z,99068.44
2022-09-28T01:43:27.755Z,99057.44
2022-09-28T01:46:42.154Z,99063.75
2022-09-28T01:49:47.163Z,99073.53
2022-09-28T01:52:55.420Z,99082.59
2022-09-28T01:56:04.569Z,99094.78
2022-09-28T01:59:16.010Z,99084.09
2022-09-28T02:02:22.370Z,99080.88
2022-09-28T02:05:31.570Z,99082.84
2022-09-28T02:08:36.423Z,99071.37
2022-09-28T02:11:42.238Z,99074.13
2022-09-28T02:14:45.572Z,99072.19
2022-09-28T02:17:47.990Z,99081.25
2022-09-28T02:20:58.835Z,99076.16
2022-09-28T02:24:07.008Z,99064.78
2022-09-28T02:27:18.478Z,99065.19
2022-09-28T02:30:21.244Z,99072.31
2022-09-28T02:33:28.818Z,99079.41
2022-09-28T02:36:32.270Z,99077.03
2022-09-28T02:39:34.320Z,99081.75
2022-09-28T02:42:46.762Z,99080.94
2022-09-28T02:45:52.632Z,99085.22
2022-09-28T02:49:20.806Z,99068.09
2022-09-28T02:52:41.569Z,99078.06
2022-09-28T02:55:56.416Z,99087.88
2022-09-28T02:58:58.433Z,99081.56
2022-09-28T03:02:24.899Z,99091.78
2022-09-28T03:05:35.375Z,99095.69
2022-09-28T03:08:56.679Z,99101.16
2022-09-28T03:12:03.628Z,99114.53
2022-09-28T03:15:26.246Z,99110.19
2022-09-28T03:18:28.603Z,99107.44
2022-09-28T03:21:30.898Z,99118.03
2022-09-28T03:24:32.989Z,99122.38
2022-09-28T03:27:35.270Z,99124.72
2022-09-28T03:30:37.286Z,99103.09
2022-09-28T03:33:39.895Z,99113.69
2022-09-28T03:36:41.943Z,99114.47
2022-09-28T03:39:44.340Z,99109.75
2022-09-28T03:42:46.914Z,99121.50
2022-09-28T03:45:55.535Z,99108.91
2022-09-28T03:49:00.975Z,99111.22
2022-09-28T03:52:04.317Z,99109.66
2022-09-28T03:55:06.500Z,99119.06
2022-09-28T03:58:08.807Z,99114.72
2022-09-28T04:01:16.483Z,99119.06
2022-09-28T04:04:19.950Z,99119.06
2022-09-28T04:07:21.972Z,99126.50
2022-09-28T04:10:24.946Z,99121.00
2022-09-28T04:13:28.071Z,99124.56
2022-09-28T04:16:30.442Z,99114.28
2022-09-28T04:19:33.325Z,99105.59
2022-09-28T04:22:37.686Z,99102.41
2022-09-28T04:25:39.847Z,99117.34
2022-09-28T04:29:06.307Z,99118.47
2022-09-28T04:32:09.723Z,99119.66
2022-09-28T04:35:12.152Z,99113.34
2022-09-28T04:38:14.146Z,99122.75
2022-09-28T04:41:16.780Z,99114.16
2022-09-28T04:44:18.836Z,99112.56
2022-09-28T04:47:21.196Z,99113.28
2022-09-28T04:50:24.622Z,99120.31
2022-09-28T04:53:41.243Z,99110.81
2022-09-28T04:56:43.259Z,99114.69
2022-09-28T04:59:45.724Z,99109.09
2022-09-28T05:02:47.750Z,99098.81
2022-09-28T05:05:52.386Z,99104.31
2022-09-28T05:08:57.366Z,99113.75
2022-09-28T05:11:59.758Z,99114.91
2022-09-28T05:15:01.806Z,99127.06
2022-09-28T05:18:04.376Z,99119.19
2022-09-28T05:21:12.859Z,99128.97
2022-09-28T05:24:15.735Z,99122.56
2022-09-28T05:27:18.595Z,99126.13
2022-09-28T05:30:22.765Z,99119.00
2022-09-28T05:33:25.609Z,99119.38
2022-09-28T05:36:28.061Z,99115.03
2022-09-28T05:39:30.050Z,99122.16
2022-09-28T05:42:32.331Z,99132.44
2022-09-28T05:45:34.518Z,99126.22
2022-09-28T05:48:38.078Z,99131.03
2022-09-28T05:51:40.212Z,99129.66
2022-09-28T05:54:43.855Z,99125.91
2022-09-28T05:57:46.122Z,99109.50
2022-09-28T06:00:53.953Z,99112.75
2022-09-28T06:03:56.283Z,99112.16
2022-09-28T06:06:58.891Z,99118.59
2022-09-28T06:10:01.406Z,99113.19
2022-09-28T06:13:06.614Z,99111.72
2022-09-28T06:16:14.216Z,99119.41
2022-09-28T06:19:16.318Z,99121.56
2022-09-28T06:22:18.693Z,99115.41
2022-09-28T06:25:22.259Z,99119.53
2022-09-28T06:28:26.052Z,99111.78
2022-09-28T06:31:30.138Z,99113.53
2022-09-28T06:34:32.449Z,99114.91
2022-09-28T06:37:34.544Z,99118.28
2022-09-28T06:40:37.453Z,99113.81
2022-09-28T06:43:39.668Z,99111.25
2022-09-28T06:46:43.378Z,99114.47
2022-09-28T06:49:51.260Z,99124.87
2022-09-28T06:52:57.182Z,99123.41
2022-09-28T06:55:59.896Z,99133.78
2022-09-28T06:59:04.163Z,99139.94
2022-09-28T07:02:08.903Z,99142.84
2022-09-28T07:05:13.496Z,99131.87
2022-09-28T07:08:15.948Z,99140.53
2022-09-28T07:11:20.376Z,99137.59
2022-09-28T07:14:42.204Z,99135.44
2022-09-28T07:17:57.981Z,99129.19
2022-09-28T07:21:04.149Z,99128.94
2022-09-28T07:24:06.913Z,99135.28
2022-09-28T07:27:10.770Z,99134.25
2022-09-28T07:30:13.607Z,99133.81
2022-09-28T07:33:17.170Z,99124.87
2022-09-28T07:36:20.908Z,99125.81
2022-09-28T07:39:23.210Z,99129.50
2022-09-28T07:42:30.107Z,99137.34
2022-09-28T07:45:36.701Z,99131.94
2022-09-28T07:48:42.825Z,99135.34
2022-09-28T07:51:44.919Z,99138.41
2022-09-28T07:54:52.086Z,99143.75
2022-09-28T07:58:01.648Z,99152.94
2022-09-28T08:01:08.731Z,99146.44
2022-09-28T08:04:11.280Z,99140.69
2022-09-28T08:07:16.634Z,99150.56
2022-09-28T08:10:22.325Z,99146.34
2022-09-28T08:13:29.092Z,99158.34
2022-09-28T08:16:32.394Z,99142.22
2022-09-28T08:19:53.537Z,99155.87
2022-09-28T08:22:56.906Z,99132.13
2022-09-28T08:25:59.120Z,99120.94
2022-09-28T08:29:01.566Z,99102.03
2022-09-28T08:32:08.158Z,99106.97
2022-09-28T08:35:11.880Z,99107.09
2022-09-28T08:38:14.332Z,99096.53
2022-09-28T08:41:17.611Z,99096.22
2022-09-28T08:44:24.374Z,99093.31
2022-09-28T08:47:52.476Z,99109.94
2022-09-28T08:50:59.362Z,99121.59
2022-09-28T08:54:12.652Z,99118.81
2022-09-28T08:57:23.003Z,99122.59
2022-09-28T09:00:38.682Z,99117.81
2022-09-28T09:03:45.320Z,99115.28
2022-09-28T09:06:56.633Z,99116.87
2022-09-28T09:10:13.512Z,99110.84
2022-09-28T09:13:31.571Z,99113.38
2022-09-28T09:16:43.539Z,99117.78
2022-09-28T09:19:46.241Z,99115.84
2022-09-28T09:22:59.779Z,99106.78
2022-09-28T09:26:12.439Z,99107.88
2022-09-28T09:29:34.302Z,99096.72
2022-09-28T09:32:36.567Z,99102.97
2022-09-28T09:35:45.257Z,99100.09
2022-09-28T09:38:58.279Z,99092.66
2022-09-28T09:42:21.115Z,99094.34
2022-09-28T09:45:33.327Z,99092.69
2022-09-28T09:48:39.550Z,99097.44
2022-09-28T09:51:44.966Z,99093.81
2022-09-28T09:54:51.897Z,99102.03
2022-09-28T09:58:04.188Z,99098.84
2022-09-28T10:01:13.161Z,99099.53
2022-09-28T10:04:26.801Z,99110.13
2022-09-28T10:07:31.975Z,99108.03
2022-09-28T10:10:37.285Z,99105.97
2022-09-28T10:13:40.347Z,99101.13
2022-09-28T10:16:46.114Z,99095.22
2022-09-28T10:19:49.344Z,99106.34
2022-09-28T10:22:58.064Z,99103.22
2022-09-28T10:26:05.975Z,99107.44
2022-09-28T10:29:15.197Z,99094.78
2022-09-28T10:32:18.482Z,99094.41
2022-09-28T10:35:23.243Z,99095.56
2022-09-28T10:38:26.213Z,99109.44
2022-09-28T10:41:31.660Z,99104.34
2022-09-28T10:44:35.272Z,99099.78
2022-09-28T10:47:37.953Z,99100.50
2022-09-28T10:50:40.844Z,99083.25
2022-09-28T10:53:58.209Z,99099.75
2022-09-28T10:57:00.922Z,99110.19
2022-09-28T11:00:06.168Z,99086.81
2022-09-28T11:03:19.420Z,99075.59
2022-09-28T11:06:38.281Z,99087.56
2022-09-28T11:09:45.059Z,99079.41
2022-09-28T11:12:49.599Z,99079.06
2022-09-28T11:15:53.012Z,99071.69
2022-09-28T11:18:57.802Z,99069.25
2022-09-28T11:22:00.902Z,99068.84
2022-09-28T11:25:16.453Z,99058.00
2022-09-28T11:28:24.813Z,99060.25
2022-09-28T11:31:28.169Z,99060.12
2022-09-28T11:35:00.183Z,99070.38
2022-09-28T11:38:12.274Z,99068.91
2022-09-28T11:41:34.074Z,99062.44
2022-09-28T11:44:36.335Z,99061.72
2022-09-28T11:47:41.665Z,99072.66
2022-09-28T11:50:56.779Z,99061.09
2022-09-28T11:54:02.497Z,99056.34
2022-09-28T11:57:05.384Z,99062.44
2022-09-28T12:00:11.892Z,99050.56
2022-09-28T12:03:21.932Z,99045.31
2022-09-28T12:06:29.265Z,99042.28
2022-09-28T12:09:50.823Z,99035.50
2022-09-28T12:13:01.381Z,99039.97
2022-09-28T12:16:32.835Z,99021.09
2022-09-28T12:19:44.189Z,99013.66
2022-09-28T12:23:02.709Z,99006.44
2022-09-28T12:26:10.746Z,99015.97
2022-09-28T12:29:19.251Z,99011.81
2022-09-28T12:32:30.830Z,99016.09
2022-09-28T12:35:52.112Z,99010.44
2022-09-28T12:39:18.941Z,99013.16
2022-09-28T12:42:28.709Z,99002.78
2022-09-28T12:45:53.089Z,98990.19
2022-09-28T12:49:43.643Z,98993.00
2022-09-28T12:52:33.007Z,98995.53
2022-09-28T12:55:44.971Z,98984.59
2022-09-28T12:58:48.475Z,98990.38
2022-09-28T13:01:59.960Z,98999.66
2022-09-28T13:05:14.607Z,98990.19
2022-09-28T13:08:16.648Z,98983.53
2022-09-28T13:11:37.354Z,98993.75
2022-09-28T13:14:39.413Z,98989.59
2022-09-28T13:18:01.720Z,98981.47
2022-09-28T13:21:06.796Z,98972.84
2022-09-28T13:24:30.991Z,98978.50
2022-09-28T13:27:37.538Z,98973.94
2022-09-28T13:30:40.428Z,98973.47
2022-09-28T13:33:43.925Z,98985.13
2022-09-28T13:36:48.337Z,98978.56
2022-09-28T13:39:56.448Z,98978.09
2022-09-28T13:43:03.947Z,98966.50
2022-09-28T13:46:18.824Z,98967.50
2022-09-28T13:49:21.193Z,98969.16
2022-09-28T13:52:35.514Z,98967.50
2022-09-28T13:55:47.581Z,98965.37
2022-09-28T13:58:53.731Z,98959.78
2022-09-28T14:02:15.078Z,98959.03
2022-09-28T14:05:23.234Z,98969.31
2022-09-28T14:08:32.007Z,98968.69
2022-09-28T14:11:34.841Z,98959.84
2022-09-28T14:14:48.649Z,98954.94
2022-09-28T14:17:54.571Z,98970.50
2022-09-28T14:21:02.609Z,98967.16
2022-09-28T14:24:23.382Z,98965.13
2022-09-28T14:27:40.393Z,98965.44
2022-09-28T14:30:42.824Z,98952.47
2022-09-28T14:33:54.752Z,98951.28
2022-09-28T14:37:15.793Z,98954.25
2022-09-28T14:40:44.799Z,98962.53
2022-09-28T14:44:02.762Z,98938.22
2022-09-28T14:47:24.738Z,98945.03
2022-09-28T14:50:28.353Z,98940.34
2022-09-28T14:53:30.436Z,98934.78
2022-09-28T14:56:44.226Z,98933.22
2022-09-28T14:59:47.836Z,98938.78
2022-09-28T15:02:52.620Z,98936.44
2022-09-28T15:05:55.313Z,98947.22
2022-09-28T15:08:57.624Z,98937.31
2022-09-28T15:12:07.714Z,98937.34
2022-09-28T15:15:24.462Z,98937.34
2022-09-28T15:18:55.814Z,98936.56
2022-09-28T15:21:58.157Z,98925.53
2022-09-28T15:25:02.937Z,98908.06
2022-09-28T15:28:18.564Z,98912.00
2022-09-28T15:31:22.770Z,98915.16
2022-09-28T15:34:48.025Z,98916.75
2022-09-28T15:37:52.047Z,98914.41
2022-09-28T15:40:54.903Z,98910.47
2022-09-28T15:44:12.100Z,98912.09
2022-09-28T15:47:16.021Z,98920.84
2022-09-28T15:50:22.952Z,98924.47
2022-09-28T15:53:25.420Z,98931.25
2022-09-28T15:56:29.184Z,98922.94
2022-09-28T15:59:39.703Z,98936.84
2022-09-28T16:02:56.551Z,98935.28
2022-09-28T16:05:58.798Z,98927.72
2022-09-28T16:09:00.805Z,98920.22
2022-09-28T16:12:11.524Z,98923.00
2022-09-28T16:15:20.599Z,98923.44
2022-09-28T16:18:23.624Z,98920.25
2022-09-28T16:21:28.590Z,98916.72
2022-09-28T16:24:35.178Z,98921.91
2022-09-28T16:27:41.887Z,98930.62
2022-09-28T16:30:59.557Z,98927.47
2022-09-28T16:34:11.669Z,98916.44
2022-09-28T16:37:31.520Z,98934.66
2022-09-28T16:40:34.791Z,98925.50
2022-09-28T16:43:37.111Z,98933.84
2022-09-28T16:46:39.323Z,98929.91
2022-09-28T16:49:42.142Z,98929.91
2022-09-28T16:53:02.745Z,98933.09
2022-09-28T16:56:05.817Z,98932.31
2022-09-28T16:59:13.605Z,98932.31
2022-09-28T17:02:42.222Z,98931.94
2022-09-28T17:05:40.252Z,98936.28
2022-09-28T17:08:43.207Z,98938.69
2022-09-28T17:11:45.316Z,98940.69
2022-09-28T17:14:47.905Z,98938.69
2022-09-28T17:17:50.514Z,98934.37
2022-09-28T17:20:55.099Z,98933.97
2022-09-28T17:23:57.149Z,98929.62
2022-09-28T17:27:00.815Z,98931.59
2022-09-28T17:30:02.967Z,98935.19
2022-09-28T17:33:05.374Z,98939.56
2022-09-28T17:36:10.436Z,98941.16
2022-09-28T17:39:14.120Z,98936.81
2022-09-28T17:42:17.302Z,98933.28
2022-09-28T17:45:19.589Z,98947.56
2022-09-28T17:48:24.761Z,98946.03
2022-09-28T17:51:28.751Z,98944.03
2022-09-28T17:54:30.808Z,98948.03
2022-09-28T17:57:35.277Z,98946.84
2022-09-28T18:00:37.327Z,98952.38
2022-09-28T18:03:39.834Z,98950.03
2022-09-28T18:06:43.229Z,98952.41
2022-09-28T18:09:45.767Z,98955.59
2022-09-28T18:12:48.210Z,98963.50
2022-09-28T18:15:54.603Z,98967.47
2022-09-28T18:18:59.233Z,98957.97
2022-09-28T18:22:01.819Z,98956.37
2022-09-28T18:25:04.439Z,98966.25
2022-09-28T18:28:07.235Z,98969.81
2022-09-28T18:31:10.026Z,98967.44
2022-09-28T18:34:13.649Z,98980.50
2022-09-28T18:37:15.775Z,98972.19
2022-09-28T18:40:19.480Z,98968.22
2022-09-28T18:43:21.794Z,98961.88
2022-09-28T18:46:27.138Z,98977.72
2022-09-28T18:49:30.911Z,98986.41
2022-09-28T18:52:35.788Z,98983.59
2022-09-28T18:55:42.063Z,98979.28
2022-09-28T18:58:45.409Z,98983.22
2022-09-28T19:01:47.521Z,98983.62
2022-09-28T19:04:49.881Z,98983.19
2022-09-28T19:07:52.075Z,98983.22
2022-09-28T19:11:03.392Z,98987.16
2022-09-28T19:14:05.474Z,98989.50
2022-09-28T19:17:07.932Z,98996.59
2022-09-28T19:20:10.023Z,98980.75
2022-09-28T19:23:12.297Z,98983.16
2022-09-28T19:26:15.904Z,98979.97
2022-09-28T19:29:18.466Z,98980.78
2022-09-28T19:32:20.601Z,98981.56
2022-09-28T19:35:22.935Z,98972.84
2022-09-28T19:38:25.250Z,98976.78
2022-09-28T19:41:46.774Z,98977.97
2022-09-28T19:44:48.848Z,98975.56
2022-09-28T19:47:51.274Z,98980.66
2022-09-28T19:51:00.569Z,98978.31
2022-09-28T19:54:04.473Z,98974.34
2022-09-28T19:57:08.644Z,98979.41
2022-09-28T20:00:11.644Z,98979.41
2022-09-28T20:03:14.375Z,98969.97
2022-09-28T20:06:17.422Z,98969.59
2022-09-28T20:09:20.249Z,98962.06
2022-09-28T20:12:22.503Z,98962.06
2022-09-28T20:15:25.255Z,98954.19
2022-09-28T20:18:27.524Z,98971.56
2022-09-28T20:21:30.314Z,98942.63
2022-09-28T20:24:32.654Z,98964.03
2022-09-28T20:27:35.019Z,98952.94
2022-09-28T20:30:37.382Z,98953.75
2022-09-28T20:33:39.808Z,98958.50
2022-09-28T20:36:42.443Z,98954.13
2022-09-28T20:39:45.278Z,98960.06
2022-09-28T20:42:47.375Z,98952.94
2022-09-28T20:45:50.571Z,98951.34
2022-09-28T20:48:55.019Z,98946.19
2022-09-28T20:51:59.480Z,98944.59
2022-09-28T20:55:01.547Z,98938.66
2022-09-28T20:58:04.578Z,98937.88
2022-09-28T21:01:09.564Z,98934.75
2022-09-28T21:04:11.999Z,98942.63
2022-09-28T21:07:14.084Z,98937.88
2022-09-28T21:10:16.712Z,98939.06
2022-09-28T21:13:18.752Z,98932.34
2022-09-28T21:16:21.126Z,98924.06
2022-09-28T21:19:24.294Z,98928.38
2022-09-28T21:22:28.965Z,98923.63
2022-09-28T21:25:31.286Z,98916.09
2022-09-28T21:28:33.961Z,98918.09
2022-09-28T21:31:40.131Z,98912.56
2022-09-28T21:34:42.397Z,98909.38
2022-09-28T21:37:44.391Z,98915.69
2022-09-28T21:40:47.152Z,98916.47
2022-09-28T21:43:49.261Z,98915.69
2022-09-28T21:46:51.574Z,98914.91
2022-09-28T21:49:53.616Z,98921.59
2022-09-28T21:52:55.942Z,98919.59
2022-09-28T21:55:58.630Z,98914.81
2022-09-28T21:59:01.424Z,98911.25
2022-09-28T22:02:05.801Z,98913.22
2022-09-28T22:05:09.189Z,98917.53
2022-09-28T22:08:11.719Z,98918.28
2022-09-28T22:11:19.015Z,98908.75
2022-09-28T22:14:21.090Z,98918.28
2022-09-28T22:17:23.479Z,98916.28
2022-09-28T22:20:25.489Z,98921.06
2022-09-28T22:23:30.392Z,98922.66
2022-09-28T22:26:33.778Z,98921.88
2022-09-28T22:29:36.148Z,98915.56
2022-09-28T22:32:38.474Z,98906.09
2022-09-28T22:35:40.727Z,98906.91
2022-09-28T22:38:43.701Z,98906.91
2022-09-28T22:41:46.082Z,98907.75
2022-09-28T22:44:48.091Z,98898.25
2022-09-28T22:47:50.445Z,98906.97
2022-09-28T22:50:53.844Z,98903.78
2022-09-28T22:53:56.718Z,98900.66
2022-09-28T22:56:58.788Z,98898.66
2022-09-28T23:00:01.162Z,98908.56
2022-09-28T23:03:03.319Z,98922.78
2022-09-28T23:06:06.353Z,98911.31
2022-09-28T23:09:08.371Z,98906.97
2022-09-28T23:12:10.601Z,98908.16
2022-09-28T23:15:13.729Z,98914.09
2022-09-28T23:18:16.209Z,98911.31
2022-09-28T23:21:19.243Z,98908.16
2022-09-28T23:24:21.520Z,98907.75
2022-09-28T23:27:23.553Z,98910.13
2022-09-28T23:30:26.229Z,98897.50
2022-09-28T23:33:28.196Z,98901.84
2022-09-28T23:36:30.753Z,98900.66
2022-09-28T23:39:33.167Z,98892.78
2022-09-28T23:42:35.630Z,98893.19
2022-09-28T23:45:37.759Z,98899.09
2022-09-28T23:48:40.087Z,98905.03
2022-09-28T23:51:42.054Z,98899.91
2022-09-28T23:54:44.642Z,98910.16
2022-09-28T23:57:46.682Z,98918.47
